Time;durP1;ratioP1;P1;durP2;ratioP2;P2;SDS_P1;SDS_P2;PMS_P1;PMS_P2;Temp;Humidity;BMP_temperature;BMP_pressure;BME280_temperature;BME280_humidity;BME280_pressure;Samples;Min_cycle;Max_cycle;Signal;HPM_P1;HPM_P2
2021/05/22 00:00:34;;;;;;;2.55;1.90;;;15.30;66.40;;;;;;5070250;28;20103;-72
2021/05/22 00:03:01;;;;;;;3.90;1.90;;;15.30;66.50;;;;;;5068734;28;20612;-71
2021/05/22 00:06:07;;;;;;;4.75;1.63;;;15.30;66.40;;;;;;5067911;28;20035;-73
2021/05/22 00:09:13;;;;;;;3.97;1.25;;;15.30;66.40;;;;;;5066387;28;20492;-73
2021/05/22 00:11:39;;;;;;;6.85;2.65;;;15.20;66.30;;;;;;5068100;28;20081;-73
2021/05/22 00:14:06;;;;;;;4.22;1.08;;;15.20;66.40;;;;;;5067049;28;20028;-73
2021/05/22 00:16:34;;;;;;;7.57;1.98;;;15.20;66.30;;;;;;5065923;28;20479;-72
2021/05/22 00:19:01;;;;;;;6.95;3.10;;;15.20;66.30;;;;;;5070041;28;20016;-73
2021/05/22 00:21:27;;;;;;;9.38;3.38;;;15.20;66.30;;;;;;5069730;28;20020;-72
2021/05/22 00:23:54;;;;;;;9.68;3.70;;;15.20;66.30;;;;;;5069921;28;20083;-73
2021/05/22 00:26:20;;;;;;;7.40;3.38;;;15.20;66.20;;;;;;5070708;28;20013;-73
2021/05/22 00:28:47;;;;;;;9.18;3.17;;;15.20;66.10;;;;;;5063185;28;20033;-73
2021/05/22 00:31:13;;;;;;;5.82;3.40;;;15.20;66.10;;;;;;5067649;28;20017;-73
2021/05/22 00:33:40;;;;;;;6.80;2.88;;;15.20;66.20;;;;;;5063163;28;20028;-73
2021/05/22 00:36:06;;;;;;;12.18;4.78;;;15.20;66.30;;;;;;5067405;28;20082;-74
2021/05/22 00:38:33;;;;;;;7.05;4.18;;;15.10;66.90;;;;;;5066210;28;20036;-71
2021/05/22 00:40:59;;;;;;;6.78;4.13;;;15.10;66.30;;;;;;5068163;28;20024;-72
2021/05/22 00:43:26;;;;;;;6.40;4.13;;;15.10;66.40;;;;;;5068759;28;20511;-74
2021/05/22 00:45:54;;;;;;;9.27;5.75;;;15.10;66.40;;;;;;5068548;28;20033;-73
2021/05/22 00:48:22;;;;;;;7.25;4.03;;;15.10;66.40;;;;;;5068344;28;20037;-73
2021/05/22 00:50:52;;;;;;;7.40;4.55;;;15.10;66.40;;;;;;5064782;28;20028;-74
2021/05/22 00:53:19;;;;;;;5.72;3.70;;;15.00;66.30;;;;;;5068610;28;20048;-74
2021/05/22 00:55:46;;;;;;;10.25;4.30;;;15.00;66.20;;;;;;5067754;28;20109;-74
2021/05/22 00:58:12;;;;;;;7.35;4.20;;;15.00;66.20;;;;;;5070043;28;20073;-72
2021/05/22 01:00:43;;;;;;;13.60;5.10;;;15.00;66.10;;;;;;5066092;28;20020;-72
2021/05/22 01:03:30;;;;;;;11.02;6.35;;;15.00;65.90;;;;;;5067148;28;20091;-73
2021/05/22 01:06:16;;;;;;;12.73;6.18;;;15.00;65.80;;;;;;5065891;28;20059;-73
2021/05/22 01:08:50;;;;;;;13.13;5.47;;;15.00;65.70;;;;;;5065748;28;20025;-74
2021/05/22 01:11:28;;;;;;;12.82;5.97;;;15.00;65.60;;;;;;5067552;28;20020;-74
2021/05/22 01:14:02;;;;;;;10.75;6.78;;;14.90;65.60;;;;;;5067127;28;20100;-73
2021/05/22 01:16:30;;;;;;;9.45;5.50;;;14.90;65.50;;;;;;5068730;28;20375;-74
2021/05/22 01:18:58;;;;;;;11.60;5.03;;;14.90;65.60;;;;;;5068513;28;20019;-73
2021/05/22 01:21:25;;;;;;;9.23;4.78;;;14.90;65.70;;;;;;5068831;28;20195;-73
2021/05/22 01:24:12;;;;;;;12.93;6.85;;;14.90;65.70;;;;;;5064353;28;20730;-70
2021/05/22 01:26:41;;;;;;;10.30;5.95;;;14.90;65.70;;;;;;5050777;28;20032;-73
2021/05/22 01:29:09;;;;;;;10.48;6.88;;;14.90;65.60;;;;;;5064807;28;20056;-72
2021/05/22 01:31:36;;;;;;;11.50;5.45;;;14.90;65.60;;;;;;5069175;28;20107;-73
2021/05/22 01:34:03;;;;;;;8.55;5.03;;;14.80;65.50;;;;;;5067016;28;20054;-72
2021/05/22 01:36:29;;;;;;;10.70;5.68;;;14.80;65.50;;;;;;5067788;28;20024;-73
2021/05/22 01:38:56;;;;;;;9.80;5.30;;;14.80;65.50;;;;;;5067306;28;20028;-73
2021/05/22 01:41:23;;;;;;;10.38;4.78;;;14.80;65.40;;;;;;5067198;28;20012;-73
2021/05/22 01:43:52;;;;;;;9.05;4.63;;;14.80;65.40;;;;;;5066863;28;20023;-74
2021/05/22 01:46:19;;;;;;;11.18;5.07;;;14.80;65.40;;;;;;5066318;28;20012;-73
2021/05/22 01:48:46;;;;;;;8.10;4.60;;;14.70;66.10;;;;;;5064968;28;20033;-68
2021/05/22 01:51:16;;;;;;;8.15;4.57;;;14.70;65.40;;;;;;5063853;28;20404;-74
2021/05/22 01:53:43;;;;;;;8.05;4.40;;;14.70;65.50;;;;;;5068317;28;20025;-73
2021/05/22 01:56:11;;;;;;;6.45;3.53;;;14.70;65.50;;;;;;5068288;28;20032;-71
2021/05/22 01:58:37;;;;;;;7.22;4.55;;;14.70;65.50;;;;;;5069312;28;20449;-73
2021/05/22 02:01:04;;;;;;;8.25;3.83;;;14.70;65.40;;;;;;5068198;28;20150;-73
2021/05/22 02:03:40;;;;;;;7.30;3.53;;;14.70;65.40;;;;;;5066429;28;20055;-73
2021/05/22 02:06:13;;;;;;;5.00;3.00;;;14.70;65.40;;;;;;5066699;28;20059;-73
2021/05/22 02:08:44;;;;;;;6.63;3.22;;;14.60;65.40;;;;;;5065984;28;20037;-73
2021/05/22 02:11:13;;;;;;;4.30;2.25;;;14.60;65.30;;;;;;5064876;28;20107;-74
2021/05/22 02:13:41;;;;;;;4.45;2.00;;;14.60;65.20;;;;;;5063064;28;20020;-66
2021/05/22 02:16:47;;;;;;;2.47;1.60;;;14.60;65.20;;;;;;5067130;28;20824;-67
2021/05/22 02:19:53;;;;;;;4.63;1.48;;;14.60;64.90;;;;;;5066219;28;20030;-71
2021/05/22 02:23:01;;;;;;;3.28;1.73;;;14.60;64.70;;;;;;5066064;28;20387;-71
2021/05/22 02:26:07;;;;;;;5.32;1.83;;;14.60;64.70;;;;;;5065816;28;20089;-74
2021/05/22 02:29:13;;;;;;;3.08;1.17;;;14.60;64.80;;;;;;5065187;28;20029;-69
2021/05/22 02:32:19;;;;;;;3.08;1.42;;;14.60;64.80;;;;;;5065562;28;20017;-69
2021/05/22 02:35:09;;;;;;;5.57;1.58;;;14.50;64.70;;;;;;5065555;28;20056;-69
2021/05/22 02:38:15;;;;;;;5.32;1.33;;;14.50;64.70;;;;;;5066847;28;20560;-67
2021/05/22 02:41:21;;;;;;;4.97;1.20;;;14.50;64.60;;;;;;5068255;28;20021;-69
2021/05/22 02:44:27;;;;;;;9.88;5.55;;;14.50;64.60;;;;;;5064528;28;20100;-70
2021/05/22 02:47:33;;;;;;;23.13;15.23;;;14.40;64.60;;;;;;5064550;28;20032;-66
2021/05/22 02:50:45;;;;;;;12.70;9.95;;;14.40;64.60;;;;;;5066989;28;20368;-68
2021/05/22 02:53:51;;;;;;;10.32;6.70;;;14.40;64.60;;;;;;5067129;28;20033;-66
2021/05/22 02:56:36;;;;;;;6.32;4.25;;;14.40;64.80;;;;;;5065613;28;20021;-65
2021/05/22 02:59:03;;;;;;;5.78;2.97;;;14.40;64.70;;;;;;5064363;28;20107;-69
2021/05/22 03:01:31;;;;;;;6.80;1.58;;;14.40;64.50;;;;;;5065352;28;20063;-67
2021/05/22 03:03:59;;;;;;;3.30;1.15;;;14.40;64.60;;;;;;5066830;28;20013;-66
2021/05/22 03:06:26;;;;;;;4.90;2.10;;;14.30;64.50;;;;;;5062980;28;20137;-67
2021/05/22 03:08:53;;;;;;;2.95;0.93;;;14.30;65.20;;;;;;5066268;28;20093;-68
2021/05/22 03:11:21;;;;;;;6.47;1.15;;;14.30;64.50;;;;;;5062298;28;20021;-67
2021/05/22 03:13:48;;;;;;;5.03;1.40;;;14.30;64.50;;;;;;5062290;28;20465;-72
2021/05/22 03:16:16;;;;;;;5.35;1.13;;;14.30;64.40;;;;;;5069892;28;20013;-67
2021/05/22 03:18:43;;;;;;;5.78;1.10;;;14.30;64.40;;;;;;5067449;28;20016;-66
2021/05/22 03:21:11;;;;;;;3.97;0.80;;;14.20;64.30;;;;;;5068502;28;20076;-66
2021/05/22 03:23:39;;;;;;;1.40;0.90;;;14.30;64.40;;;;;;5072767;28;20035;-66
2021/05/22 03:26:05;;;;;;;2.40;0.90;;;14.20;64.40;;;;;;5067567;28;20017;-68
2021/05/22 03:28:32;;;;;;;3.67;1.20;;;14.20;64.40;;;;;;5071241;28;20098;-67
2021/05/22 03:30:59;;;;;;;3.63;0.80;;;14.20;64.50;;;;;;5069748;28;20076;-67
2021/05/22 03:33:25;;;;;;;2.65;0.90;;;14.20;64.50;;;;;;5070027;28;20036;-67
2021/05/22 03:35:52;;;;;;;2.55;1.70;;;14.20;64.60;;;;;;5067340;28;20017;-66
2021/05/22 03:38:19;;;;;;;2.55;1.10;;;14.20;64.50;;;;;;5069699;28;20070;-66
2021/05/22 03:40:46;;;;;;;2.35;1.30;;;14.10;64.40;;;;;;5067293;28;20537;-65
2021/05/22 03:43:13;;;;;;;5.47;4.38;;;14.10;64.40;;;;;;5069411;28;20545;-66
2021/05/22 03:45:39;;;;;;;19.80;13.65;;;14.10;64.50;;;;;;5067804;28;20029;-69
2021/05/22 03:48:06;;;;;;;13.40;10.70;;;14.10;64.60;;;;;;5069077;28;20032;-66
2021/05/22 03:50:32;;;;;;;10.63;6.97;;;14.10;64.70;;;;;;5068141;28;20104;-66
2021/05/22 03:52:59;;;;;;;8.75;5.15;;;14.10;64.60;;;;;;5067753;28;20040;-65
2021/05/22 03:55:26;;;;;;;6.05;3.10;;;14.10;64.60;;;;;;5070334;28;20023;-65
2021/05/22 03:57:52;;;;;;;6.85;2.72;;;14.10;64.80;;;;;;5069222;28;20031;-65
2021/05/22 04:00:19;;;;;;;7.00;2.17;;;14.00;64.70;;;;;;5068120;28;20074;-65
2021/05/22 04:02:46;;;;;;;5.43;1.80;;;14.00;64.80;;;;;;5068510;28;20495;-70
2021/05/22 04:05:13;;;;;;;2.90;1.70;;;14.10;64.80;;;;;;5069687;28;20476;-68
2021/05/22 04:07:40;;;;;;;6.10;1.48;;;14.00;64.70;;;;;;5070447;28;20081;-65
2021/05/22 04:10:07;;;;;;;3.50;1.60;;;14.00;64.60;;;;;;5068215;28;20017;-69
2021/05/22 04:12:33;;;;;;;4.18;1.48;;;14.00;64.60;;;;;;5070574;28;20032;-66
2021/05/22 04:15:00;;;;;;;7.78;1.83;;;14.00;64.60;;;;;;5065350;28;20089;-65
2021/05/22 04:17:26;;;;;;;4.72;2.50;;;14.00;64.60;;;;;;5066170;28;20024;-69
2021/05/22 04:19:53;;;;;;;4.95;1.42;;;14.00;64.60;;;;;;5069591;28;20091;-72
2021/05/22 04:22:20;;;;;;;6.03;1.38;;;13.90;64.60;;;;;;5067116;28;20115;-74
2021/05/22 04:24:46;;;;;;;12.50;1.40;;;13.90;64.60;;;;;;5065830;28;20098;-65
2021/05/22 04:27:13;;;;;;;3.53;1.20;;;13.90;64.70;;;;;;5069892;28;20039;-66
2021/05/22 04:29:40;;;;;;;2.70;0.98;;;13.90;64.80;;;;;;5065296;28;20100;-67
2021/05/22 04:32:06;;;;;;;9.75;5.72;;;13.90;64.80;;;;;;5069322;28;20501;-65
2021/05/22 04:34:33;;;;;;;25.00;17.65;;;13.90;64.80;;;;;;5068453;28;20039;-71
2021/05/22 04:36:59;;;;;;;28.35;20.17;;;13.90;64.80;;;;;;5065574;28;20048;-67
2021/05/22 04:39:27;;;;;;;21.80;15.45;;;13.90;64.80;;;;;;5067832;28;21989;-65
2021/05/22 04:41:53;;;;;;;10.93;8.50;;;13.90;64.80;;;;;;5063483;28;20044;-66
2021/05/22 04:44:20;;;;;;;8.77;5.57;;;13.90;64.70;;;;;;5061800;28;20098;-65
2021/05/22 04:46:46;;;;;;;5.75;4.35;;;13.90;64.70;;;;;;5061701;28;20016;-66
2021/05/22 04:49:13;;;;;;;3.97;2.15;;;13.90;64.70;;;;;;5062415;28;20036;-68
2021/05/22 04:51:41;;;;;;;4.15;2.58;;;13.80;64.70;;;;;;5061279;28;20020;-65
2021/05/22 04:54:09;;;;;;;6.18;1.65;;;13.80;64.70;;;;;;5061724;28;20021;-66
2021/05/22 04:57:15;;;;;;;7.93;2.42;;;13.80;64.70;;;;;;5059215;28;20950;-66
2021/05/22 05:00:21;;;;;;;7.28;1.50;;;13.80;64.80;;;;;;5061512;28;20107;-74
2021/05/22 05:03:27;;;;;;;4.38;1.45;;;13.80;64.70;;;;;;5059156;28;20032;-69
2021/05/22 05:06:34;;;;;;;4.20;1.30;;;13.80;64.70;;;;;;5059524;28;20064;-67
2021/05/22 05:09:40;;;;;;;2.92;1.58;;;13.80;64.70;;;;;;5064343;28;20090;-69
2021/05/22 05:12:46;;;;;;;3.13;1.50;;;13.80;64.70;;;;;;5060090;28;20396;-67
2021/05/22 05:15:52;;;;;;;3.03;1.38;;;13.70;64.60;;;;;;5059994;28;20031;-67
2021/05/22 05:18:58;;;;;;;5.43;2.22;;;13.70;64.60;;;;;;5062597;28;20029;-67
2021/05/22 05:21:25;;;;;;;7.13;1.88;;;13.70;64.60;;;;;;5059973;28;20075;-65
2021/05/22 05:23:51;;;;;;;1.83;1.25;;;13.70;64.50;;;;;;5057218;28;20127;-66
2021/05/22 05:26:18;;;;;;;3.13;1.75;;;13.70;64.60;;;;;;5061575;28;20029;-67
2021/05/22 05:28:44;;;;;;;10.90;2.50;;;13.70;64.60;;;;;;5059244;28;20040;-66
2021/05/22 05:31:11;;;;;;;4.70;2.45;;;13.70;64.70;;;;;;5057809;28;20135;-65
2021/05/22 05:33:37;;;;;;;5.57;1.80;;;13.70;64.80;;;;;;5057209;28;20025;-70
2021/05/22 05:36:04;;;;;;;8.52;2.28;;;13.70;64.70;;;;;;5060560;28;20096;-72
2021/05/22 05:38:32;;;;;;;7.40;2.28;;;13.70;64.70;;;;;;5062498;28;20364;-66
2021/05/22 05:40:59;;;;;;;5.13;1.75;;;13.60;64.70;;;;;;5062077;28;20300;-74
2021/05/22 05:43:25;;;;;;;4.30;2.33;;;13.60;64.80;;;;;;5059321;28;20016;-74
2021/05/22 05:45:52;;;;;;;4.40;2.03;;;13.60;64.90;;;;;;5061050;28;20357;-76
2021/05/22 05:48:18;;;;;;;4.97;2.80;;;13.60;65.00;;;;;;5060658;28;20522;-72
2021/05/22 05:50:45;;;;;;;2.80;2.10;;;13.60;65.10;;;;;;5059581;28;20020;-65
2021/05/22 05:53:12;;;;;;;3.88;2.63;;;13.50;65.10;;;;;;5060547;28;20012;-74
2021/05/22 05:55:38;;;;;;;10.73;2.95;;;13.60;65.20;;;;;;5060057;28;20114;-74
2021/05/22 05:58:05;;;;;;;9.98;3.28;;;13.60;65.20;;;;;;5062278;28;20472;-74
2021/05/22 06:00:32;;;;;;;7.85;4.05;;;13.60;65.20;;;;;;5062865;28;20503;-70
2021/05/22 06:02:58;;;;;;;6.18;2.33;;;13.60;65.20;;;;;;5060755;28;20392;-72
2021/05/22 06:05:25;;;;;;;11.20;3.60;;;13.50;65.20;;;;;;5061777;28;20044;-74
2021/05/22 06:08:31;;;;;;;5.05;3.05;;;13.50;65.20;;;;;;5059590;28;20061;-74
2021/05/22 06:11:37;;;;;;;9.27;3.60;;;13.50;65.20;;;;;;5062975;28;20028;-70
2021/05/22 06:14:09;;;;;;;;;;;13.50;65.20;;;;;;5063975;28;20021;-72
2021/05/22 06:16:36;;;;;;;5.15;3.05;;;13.50;65.30;;;;;;5062783;28;19904;-71
2021/05/22 06:19:03;;;;;;;9.20;6.05;;;13.50;65.50;;;;;;5060716;28;20073;-70
2021/05/22 06:21:30;;;;;;;25.20;18.33;;;13.50;65.60;;;;;;5059570;28;20069;-71
2021/05/22 06:23:56;;;;;;;23.08;17.17;;;13.50;65.80;;;;;;5060336;28;20387;-71
2021/05/22 06:26:23;;;;;;;22.98;15.02;;;13.50;66.10;;;;;;5061977;28;20491;-69
2021/05/22 06:28:49;;;;;;;17.15;13.40;;;13.50;66.40;;;;;;5062372;28;20055;-71
2021/05/22 06:31:15;;;;;;;17.55;13.32;;;13.50;66.70;;;;;;5058400;28;20395;-71
2021/05/22 06:33:42;;;;;;;19.65;14.82;;;13.50;67.00;;;;;;5065067;28;20017;-69
2021/05/22 06:36:09;;;;;;;18.05;16.13;;;13.50;67.10;;;;;;5064126;28;20020;-69
2021/05/22 06:38:35;;;;;;;20.73;18.52;;;13.50;67.70;;;;;;5061968;28;20625;-70
2021/05/22 06:41:02;;;;;;;25.00;16.02;;;13.50;67.90;;;;;;5062624;28;20031;-70
2021/05/22 06:43:29;;;;;;;17.45;13.32;;;13.50;68.10;;;;;;5060445;28;20107;-68
2021/05/22 06:45:58;;;;;;;16.98;11.55;;;13.50;68.20;;;;;;5059937;28;20021;-70
2021/05/22 06:48:25;;;;;;;13.48;11.57;;;13.50;68.30;;;;;;5061223;28;20482;-66
2021/05/22 06:50:52;;;;;;;11.77;9.48;;;13.60;68.60;;;;;;5044799;28;20396;-70
2021/05/22 06:53:19;;;;;;;10.77;8.20;;;13.60;68.70;;;;;;5059568;28;20024;-69
2021/05/22 06:55:45;;;;;;;13.35;7.60;;;13.60;69.00;;;;;;5058594;28;20032;-70
2021/05/22 06:58:12;;;;;;;10.90;7.55;;;13.60;69.10;;;;;;5062834;28;20041;-68
2021/05/22 07:00:38;;;;;;;15.38;6.88;;;13.60;69.40;;;;;;5061675;28;20021;-71
2021/05/22 07:03:05;;;;;;;17.63;7.60;;;13.60;69.60;;;;;;5060577;28;20139;-70
2021/05/22 07:05:32;;;;;;;18.83;7.25;;;13.70;69.80;;;;;;5062546;28;20040;-66
2021/05/22 07:08:00;;;;;;;14.48;5.72;;;13.70;70.10;;;;;;5060820;28;20044;-69
2021/05/22 07:10:26;;;;;;;10.15;6.88;;;13.70;70.30;;;;;;5060937;28;20135;-66
2021/05/22 07:12:53;;;;;;;10.57;6.47;;;13.70;70.40;;;;;;5060734;28;20033;-67
2021/05/22 07:15:19;;;;;;;8.48;5.43;;;13.70;70.70;;;;;;5059551;28;20017;-67
2021/05/22 07:17:47;;;;;;;8.73;5.35;;;13.70;70.70;;;;;;5044982;28;20476;-67
2021/05/22 07:20:15;;;;;;;18.67;6.30;;;13.80;71.00;;;;;;5061086;28;20099;-67
2021/05/22 07:22:41;;;;;;;11.43;6.25;;;13.80;71.30;;;;;;5058861;28;20356;-68
2021/05/22 07:25:09;;;;;;;10.57;5.68;;;13.80;71.40;;;;;;5058775;28;20112;-66
2021/05/22 07:27:36;;;;;;;9.45;5.07;;;13.90;71.60;;;;;;5047894;28;20499;-68
2021/05/22 07:30:09;;;;;;;6.60;4.15;;;13.90;71.70;;;;;;5065120;28;20060;-67
2021/05/22 07:32:38;;;;;;;9.70;4.97;;;13.90;71.90;;;;;;5063855;28;20020;-67
2021/05/22 07:35:06;;;;;;;11.15;5.03;;;13.90;71.80;;;;;;5061537;28;20060;-67
2021/05/22 07:37:33;;;;;;;6.00;3.85;;;14.00;72.00;;;;;;5060377;28;20021;-67
2021/05/22 07:40:00;;;;;;;9.38;4.72;;;14.00;72.00;;;;;;5063537;28;20056;-66
2021/05/22 07:43:06;;;;;;;10.38;4.18;;;14.00;71.90;;;;;;5057270;28;20407;-68
2021/05/22 07:46:13;;;;;;;10.63;4.47;;;14.10;71.90;;;;;;5060289;28;20020;-68
2021/05/22 07:49:19;;;;;;;17.33;3.85;;;14.10;71.80;;;;;;5064806;28;20052;-67
2021/05/22 07:52:25;;;;;;;9.40;4.45;;;14.10;71.70;;;;;;5066085;28;20020;-68
2021/05/22 07:55:31;;;;;;;13.55;3.38;;;14.20;71.70;;;;;;5060847;28;20037;-68
2021/05/22 07:57:57;;;;;;;8.10;3.45;;;14.20;71.60;;;;;;5065300;28;20488;-67
2021/05/22 08:00:24;;;;;;;6.32;3.55;;;14.30;71.60;;;;;;5068500;28;20028;-72
2021/05/22 08:03:19;;;;;;;8.10;3.90;;;14.30;71.60;;;;;;5069257;28;20051;-73
2021/05/22 08:05:45;;;;;;;12.80;4.90;;;14.40;71.70;;;;;;5048669;28;20025;-73
2021/05/22 08:08:12;;;;;;;10.38;5.05;;;14.40;71.70;;;;;;5065725;28;20036;-73
2021/05/22 08:10:39;;;;;;;18.58;10.35;;;14.40;71.70;;;;;;5067211;28;20027;-72
2021/05/22 08:13:06;;;;;;;17.13;9.80;;;14.50;71.70;;;;;;5069915;28;20159;-73
2021/05/22 08:15:33;;;;;;;13.90;8.00;;;14.50;71.40;;;;;;5065316;28;20463;-75
2021/05/22 08:17:59;;;;;;;12.23;5.90;;;14.50;71.30;;;;;;5061167;28;20021;-71
2021/05/22 08:20:26;;;;;;;9.85;5.45;;;14.60;71.00;;;;;;5066996;28;20494;-73
2021/05/22 08:22:52;;;;;;;11.07;5.30;;;14.70;70.40;;;;;;5070235;28;20013;-71
2021/05/22 08:25:19;;;;;;;16.08;6.13;;;14.70;70.10;;;;;;5065244;28;20044;-74
2021/05/22 08:27:45;;;;;;;7.95;4.30;;;14.70;70.00;;;;;;5062860;28;20029;-74
2021/05/22 08:30:13;;;;;;;13.68;5.10;;;14.80;70.00;;;;;;5064614;28;20388;-69
2021/05/22 08:32:39;;;;;;;8.27;4.95;;;14.80;70.00;;;;;;5063965;28;20385;-71
2021/05/22 08:35:07;;;;;;;9.55;4.13;;;14.80;69.90;;;;;;5068637;28;20044;-73
2021/05/22 08:37:34;;;;;;;6.10;4.70;;;14.90;69.80;;;;;;5064267;28;20063;-75
2021/05/22 08:40:00;;;;;;;7.30;4.03;;;14.90;69.60;;;;;;5066654;28;20028;-72
2021/05/22 08:42:28;;;;;;;6.20;3.88;;;15.00;69.50;;;;;;5069969;28;20053;-70
2021/05/22 08:45:13;;;;;;;6.75;3.90;;;15.00;69.10;;;;;;5068685;28;20119;-75
2021/05/22 08:47:41;;;;;;;8.63;4.73;;;15.00;68.80;;;;;;5064607;28;20046;-68
2021/05/22 08:50:10;;;;;;;13.25;5.00;;;15.10;68.70;;;;;;5068848;28;20028;-73
2021/05/22 08:52:37;;;;;;;11.75;4.78;;;15.10;68.30;;;;;;5068863;28;20075;-74
2021/05/22 08:55:05;;;;;;;13.05;5.35;;;15.20;68.30;;;;;;5065666;28;20051;-72
2021/05/22 08:57:31;;;;;;;13.52;5.05;;;15.20;68.40;;;;;;5065861;28;20017;-73
2021/05/22 08:59:58;;;;;;;10.55;5.55;;;15.20;68.30;;;;;;5069515;28;20052;-69
2021/05/22 09:02:26;;;;;;;8.18;4.57;;;15.30;68.40;;;;;;5063093;28;20029;-74
2021/05/22 09:05:10;;;;;;;9.52;4.55;;;15.30;68.40;;;;;;5064474;28;20044;-76
2021/05/22 09:07:42;;;;;;;8.80;5.30;;;15.40;68.50;;;;;;5064990;28;20028;-73
2021/05/22 09:10:20;;;;;;;7.43;4.95;;;15.40;68.40;;;;;;5062340;28;20057;-72
2021/05/22 09:12:49;;;;;;;7.78;4.40;;;15.50;68.50;;;;;;5063861;28;20047;-71
2021/05/22 09:15:18;;;;;;;8.00;3.97;;;15.50;68.10;;;;;;5064055;28;20024;-75
2021/05/22 09:17:51;;;;;;;7.50;4.32;;;15.60;67.70;;;;;;5070139;28;20019;-75
2021/05/22 09:20:20;;;;;;;8.20;4.00;;;15.60;67.30;;;;;;5068919;28;20035;-75
2021/05/22 09:23:03;;;;;;;10.32;4.80;;;15.60;67.00;;;;;;5070247;28;20027;-75
2021/05/22 09:25:33;;;;;;;6.65;3.80;;;15.70;67.10;;;;;;5067078;28;20565;-79
2021/05/22 09:28:00;;;;;;;5.22;4.05;;;15.70;67.00;;;;;;5052688;28;20101;-76
2021/05/22 09:30:28;;;;;;;5.95;3.80;;;15.80;67.50;;;;;;5064893;28;20479;-74
2021/05/22 09:32:55;;;;;;;7.38;4.30;;;15.80;67.20;;;;;;5065444;28;20055;-70
2021/05/22 09:35:24;;;;;;;7.45;4.10;;;15.80;66.90;;;;;;5065049;28;20032;-71
2021/05/22 09:37:59;;;;;;;6.20;3.53;;;15.90;66.60;;;;;;5065073;28;20067;-78
2021/05/22 09:40:29;;;;;;;8.13;3.65;;;15.90;65.60;;;;;;5067406;28;20473;-82
2021/05/22 09:42:57;;;;;;;7.35;3.08;;;16.00;64.30;;;;;;5065560;28;20074;-72
2021/05/22 09:45:25;;;;;;;10.88;3.05;;;16.10;64.10;;;;;;5068899;28;20108;-78
2021/05/22 09:47:53;;;;;;;8.18;4.38;;;16.10;61.90;;;;;;5063665;28;20036;-76
2021/05/22 09:50:30;;;;;;;4.95;3.47;;;16.20;62.10;;;;;;5065037;28;20056;-73
2021/05/22 09:53:00;;;;;;;10.48;4.25;;;16.10;62.00;;;;;;5066547;28;20044;-74
2021/05/22 09:55:26;;;;;;;6.10;3.47;;;16.20;62.30;;;;;;5064724;28;20012;-74
2021/05/22 09:57:55;;;;;;;7.28;3.80;;;16.30;62.30;;;;;;5061405;28;20028;-76
2021/05/22 10:00:27;;;;;;;7.32;3.58;;;16.30;62.20;;;;;;5063479;28;20113;-76
2021/05/22 10:02:58;;;;;;;6.78;3.40;;;16.40;61.80;;;;;;5060118;28;20025;-71
2021/05/22 10:05:33;;;;;;;7.78;3.67;;;16.40;61.20;;;;;;5061569;28;20028;-67
2021/05/22 10:08:02;;;;;;;10.32;3.58;;;16.50;60.80;;;;;;5061173;28;20040;-76
2021/05/22 10:10:50;;;;;;;9.95;2.85;;;16.50;60.60;;;;;;5067482;28;20041;-72
2021/05/22 10:13:20;;;;;;;6.43;3.70;;;16.60;60.20;;;;;;5058540;28;20024;-75
2021/05/22 10:15:48;;;;;;;5.25;2.80;;;16.60;60.10;;;;;;5051504;28;20352;-75
2021/05/22 10:18:17;;;;;;;5.53;2.85;;;16.70;59.60;;;;;;5064136;28;20091;-70
2021/05/22 10:20:43;;;;;;;4.70;2.47;;;16.80;59.70;;;;;;5064962;28;20111;-75
2021/05/22 10:23:11;;;;;;;6.45;2.42;;;16.80;59.80;;;;;;5063587;28;20029;-72
2021/05/22 10:25:38;;;;;;;14.35;7.68;;;16.90;59.50;;;;;;5067467;28;20139;-73
2021/05/22 10:28:05;;;;;;;9.00;5.68;;;16.90;58.90;;;;;;5067314;28;20570;-75
2021/05/22 10:30:32;;;;;;;7.32;4.03;;;17.00;58.60;;;;;;5063760;28;20031;-76
2021/05/22 10:33:04;;;;;;;5.28;1.95;;;17.00;58.40;;;;;;5065693;28;20020;-77
2021/05/22 10:35:56;;;;;;;5.75;1.95;;;17.10;57.00;;;;;;5063244;28;20090;-79
2021/05/22 10:38:36;;;;;;;5.93;1.80;;;17.30;54.90;;;;;;5066704;28;20021;-76
2021/05/22 10:41:08;;;;;;;4.10;1.23;;;17.50;53.00;;;;;;5068116;28;20028;-78
2021/05/22 10:43:45;;;;;;;5.70;1.25;;;17.60;51.70;;;;;;5065103;28;20020;-77
2021/05/22 10:46:17;;;;;;;3.30;1.08;;;17.70;50.80;;;;;;5067544;28;20052;-78
2021/05/22 10:48:49;;;;;;;3.47;1.35;;;17.80;50.80;;;;;;5060611;28;20075;-75
2021/05/22 10:51:34;;;;;;;6.50;1.73;;;17.90;49.10;;;;;;5066451;28;20025;-74
2021/05/22 10:54:05;;;;;;;5.00;1.30;;;18.00;50.10;;;;;;5061727;28;20032;-74
2021/05/22 10:56:32;;;;;;;3.08;1.17;;;18.00;50.70;;;;;;5067773;28;20013;-74
2021/05/22 10:58:59;;;;;;;5.47;1.50;;;18.00;51.20;;;;;;5069941;28;20017;-74
2021/05/22 11:01:59;;;;;;;3.08;1.20;;;17.90;51.60;;;;;;5055113;28;21118;-74
2021/05/22 11:04:21;;;;;;;2.70;0.93;;;17.90;52.00;;;;;;5063833;28;20587;-76
2021/05/22 11:06:47;;;;;;;3.65;1.13;;;17.90;52.90;;;;;;5063533;28;20499;-75
2021/05/22 11:09:44;;;;;;;2.65;1.25;;;17.90;53.10;;;;;;5068610;28;20045;-73
2021/05/22 11:12:12;;;;;;;2.60;1.20;;;17.80;53.30;;;;;;5053009;28;20028;-74
2021/05/22 11:14:53;;;;;;;3.25;1.15;;;17.80;53.30;;;;;;5063002;28;20033;-74
2021/05/22 11:17:23;;;;;;;31.08;23.42;;;17.80;53.20;;;;;;5064885;28;20417;-73
2021/05/22 11:20:06;;;;;;;69.40;55.65;;;17.80;53.10;;;;;;5066802;28;20387;-73
2021/05/22 11:22:58;;;;;;;24.10;7.90;;;18.00;51.50;;;;;;5066973;28;20471;-74
2021/05/22 11:25:26;;;;;;;11.23;3.95;;;18.20;49.60;;;;;;5068327;28;20139;-75
2021/05/22 11:28:01;;;;;;;9.40;2.30;;;18.40;49.10;;;;;;5067543;28;20433;-73
2021/05/22 11:30:36;;;;;;;53.35;10.55;;;18.60;48.80;;;;;;5068414;28;20016;-72
2021/05/22 11:33:04;;;;;;;74.90;64.35;;;18.90;49.30;;;;;;5065006;28;20083;-73
2021/05/22 11:35:39;;;;;;;44.78;38.55;;;19.00;48.00;;;;;;5069094;28;20549;-72
2021/05/22 11:38:14;;;;;;;22.45;15.40;;;19.20;47.10;;;;;;5069781;28;20032;-73
2021/05/22 11:40:40;;;;;;;7.40;3.45;;;19.30;46.80;;;;;;5069772;28;20747;-75
2021/05/22 11:43:18;;;;;;;4.43;1.58;;;19.40;45.60;;;;;;5071225;28;20028;-75
2021/05/22 11:45:53;;;;;;;7.30;2.67;;;19.40;45.30;;;;;;5071740;28;20036;-75
2021/05/22 11:48:22;;;;;;;3.55;1.67;;;19.50;44.30;;;;;;5072596;28;20035;-74
2021/05/22 11:50:49;;;;;;;3.55;1.50;;;19.50;44.70;;;;;;5069569;28;20024;-73
2021/05/22 11:53:17;;;;;;;5.50;1.20;;;19.60;45.00;;;;;;5071197;28;20025;-73
2021/05/22 11:56:09;;;;;;;5.18;1.90;;;19.60;44.50;;;;;;5067791;28;20178;-74
2021/05/22 11:58:37;;;;;;;3.80;1.00;;;19.70;45.80;;;;;;5071602;28;20120;-72
2021/05/22 12:01:10;;;;;;;4.00;1.15;;;19.90;45.40;;;;;;5065649;28;20563;-71
2021/05/22 12:04:16;;;;;;;5.95;1.52;;;20.00;43.70;;;;;;5067825;28;20020;-73
2021/05/22 12:07:22;;;;;;;41.55;4.90;;;20.10;43.00;;;;;;5068167;28;20530;-73
2021/05/22 12:09:49;;;;;;;16.88;2.17;;;20.20;44.50;;;;;;5068802;28;20103;-71
2021/05/22 12:12:15;;;;;;;152.77;16.13;;;20.20;42.90;;;;;;5069600;28;20024;-69
2021/05/22 12:14:44;;;;;;;62.92;7.35;;;20.30;42.30;;;;;;5068418;28;20021;-70
2021/05/22 12:17:16;;;;;;;22.05;15.90;;;20.30;40.60;;;;;;5070039;28;20546;-71
2021/05/22 12:19:45;;;;;;;18.58;14.95;;;20.30;40.50;;;;;;5067621;28;20013;-70
2021/05/22 12:22:14;;;;;;;4.80;3.00;;;20.40;40.70;;;;;;5067776;28;20016;-71
2021/05/22 12:24:41;;;;;;;3.35;1.88;;;20.40;40.40;;;;;;5063753;28;20036;-70
2021/05/22 12:27:13;;;;;;;5.03;1.40;;;20.50;39.60;;;;;;5058606;28;20033;-70
2021/05/22 12:29:40;;;;;;;3.17;1.08;;;20.40;40.00;;;;;;5064222;28;20013;-70
2021/05/22 12:32:12;;;;;;;5.20;3.70;;;20.40;39.70;;;;;;5063837;28;20056;-70
2021/05/22 12:34:39;;;;;;;3.10;2.80;;;20.40;39.60;;;;;;5064582;28;20464;-72
2021/05/22 12:37:20;;;;;;;2.88;1.52;;;20.40;40.30;;;;;;5065356;28;20111;-70
2021/05/22 12:39:49;;;;;;;3.30;1.15;;;20.40;39.70;;;;;;5063319;28;20395;-69
2021/05/22 12:42:17;;;;;;;3.17;1.40;;;20.50;40.00;;;;;;5062865;28;20114;-70
2021/05/22 12:44:45;;;;;;;4.07;1.13;;;20.50;39.40;;;;;;5065899;28;20505;-70
2021/05/22 12:47:13;;;;;;;11.23;1.95;;;20.40;39.10;;;;;;5061225;28;20090;-73
2021/05/22 12:50:06;;;;;;;8.75;1.50;;;20.40;40.00;;;;;;5063789;28;20464;-74
2021/05/22 12:52:47;;;;;;;5.10;0.98;;;20.30;41.30;;;;;;5060286;28;20052;-75
2021/05/22 12:55:36;;;;;;;3.03;1.27;;;20.20;41.80;;;;;;5059364;28;20032;-74
2021/05/22 12:58:22;;;;;;;2.42;1.50;;;20.10;42.40;;;;;;5064577;28;20074;-75
2021/05/22 13:00:51;;;;;;;4.32;1.15;;;20.10;43.10;;;;;;5068562;28;20040;-72
2021/05/22 13:03:35;;;;;;;7.22;1.20;;;20.00;43.40;;;;;;5060882;28;20020;-73
2021/05/22 13:06:01;;;;;;;5.30;1.50;;;20.00;43.70;;;;;;5063019;28;20008;-75
2021/05/22 13:08:28;;;;;;;2.65;1.30;;;20.00;44.20;;;;;;5063188;28;20561;-74
2021/05/22 13:11:11;;;;;;;3.72;1.85;;;19.90;44.40;;;;;;5062843;28;20017;-73
2021/05/22 13:13:38;;;;;;;3.17;1.20;;;19.90;44.40;;;;;;5065970;28;20096;-71